createdAt,value
2023-02-17T00:04:52.290Z,62.00
2023-02-17T00:15:16.461Z,51.50
2023-02-17T00:25:41.230Z,53.40
2023-02-17T00:36:10.846Z,52.10
2023-02-17T00:46:35.070Z,51.60
2023-02-17T00:56:59.456Z,43.50
2023-02-17T01:07:23.674Z,41.80
2023-02-17T01:17:47.892Z,41.30
2023-02-17T01:28:16.288Z,33.40
2023-02-17T01:38:40.893Z,37.70
2023-02-17T01:49:15.144Z,36.60
2023-02-17T01:59:40.316Z,39.20
2023-02-17T02:10:07.517Z,35.40
2023-02-17T02:21:08.592Z,36.30
2023-02-17T02:31:51.790Z,37.10
2023-02-17T02:42:19.339Z,31.80
2023-02-17T02:52:54.875Z,33.80
2023-02-17T03:03:25.756Z,32.90
2023-02-17T03:13:49.969Z,33.90
2023-02-17T03:24:14.350Z,29.30
2023-02-17T03:34:39.415Z,32.00
2023-02-17T03:45:05.248Z,32.90
2023-02-17T03:55:29.488Z,32.90
2023-02-17T04:05:54.126Z,32.60
2023-02-17T04:16:18.494Z,32.60
2023-02-17T04:26:42.683Z,31.50
2023-02-17T04:37:07.047Z,36.60
2023-02-17T04:47:31.235Z,32.30
2023-02-17T04:57:56.161Z,32.70
2023-02-17T05:08:21.716Z,32.00
2023-02-17T05:18:46.575Z,37.10
2023-02-17T05:29:11.526Z,41.90
2023-02-17T05:39:36.428Z,40.30
2023-02-17T05:50:01.260Z,36.70
2023-02-17T06:00:26.593Z,49.60
2023-02-17T06:10:52.280Z,38.00
2023-02-17T06:21:16.474Z,41.60
2023-02-17T06:31:41.436Z,32.40
2023-02-17T06:42:06.352Z,33.00
2023-02-17T06:52:31.383Z,28.30
2023-02-17T07:02:56.324Z,30.60
2023-02-17T07:13:21.143Z,33.90
2023-02-17T07:23:45.959Z,29.40
2023-02-17T07:34:10.868Z,28.50
2023-02-17T07:44:35.987Z,31.50
2023-02-17T07:55:01.281Z,30.50
2023-02-17T08:05:25.514Z,37.20
2023-02-17T08:15:50.507Z,27.50
2023-02-17T08:26:15.350Z,32.10
2023-02-17T08:36:40.949Z,30.50
2023-02-17T08:47:06.474Z,30.90
2023-02-17T08:57:30.727Z,30.20
2023-02-17T09:07:54.915Z,31.90
2023-02-17T09:18:19.946Z,33.10
2023-02-17T09:28:44.880Z,27.40
2023-02-17T09:39:11.566Z,24.90
2023-02-17T09:49:41.168Z,20.50
2023-02-17T10:00:12.643Z,27.70
2023-02-17T10:10:43.436Z,23.80
2023-02-17T10:21:13.224Z,26.20
2023-02-17T10:31:45.120Z,22.70
2023-02-17T10:42:17.379Z,24.30
2023-02-17T10:52:42.486Z,23.30
2023-02-17T11:03:06.784Z,22.60
2023-02-17T11:13:37.457Z,22.40
2023-02-17T11:24:05.023Z,23.70
2023-02-17T11:34:32.375Z,19.10
2023-02-17T11:44:59.295Z,24.20
2023-02-17T11:55:31.196Z,22.30
2023-02-17T12:06:08.620Z,26.00
2023-02-17T12:16:45.455Z,20.00
2023-02-17T12:27:24.103Z,23.10
2023-02-17T12:37:53.506Z,30.10
2023-02-17T12:48:26.337Z,21.50
2023-02-17T12:58:52.543Z,21.50
2023-02-17T13:09:26.288Z,21.40
2023-02-17T13:20:03.893Z,19.40
2023-02-17T13:30:38.524Z,14.60
2023-02-17T13:41:06.446Z,19.20
2023-02-17T13:51:32.956Z,15.40
2023-02-17T14:01:57.306Z,15.40
2023-02-17T14:12:23.634Z,18.70
2023-02-17T14:23:03.936Z,14.80
2023-02-17T14:33:28.987Z,16.30
2023-02-17T14:43:53.177Z,18.30
2023-02-17T14:54:18.751Z,18.80
2023-02-17T15:04:43.394Z,15.60
2023-02-17T15:15:14.089Z,21.70
2023-02-17T15:25:38.318Z,14.10
2023-02-17T15:36:02.575Z,14.20
2023-02-17T15:46:30.793Z,15.90
2023-02-17T15:56:55.036Z,14.90
2023-02-17T16:07:19.327Z,12.00
2023-02-17T16:17:43.735Z,21.00
2023-02-17T16:28:15.112Z,17.60
2023-02-17T16:38:39.293Z,18.20
2023-02-17T16:49:19.168Z,18.50
2023-02-17T16:59:43.559Z,15.70
2023-02-17T17:10:16.736Z,15.10
2023-02-17T17:20:41.872Z,19.70
2023-02-17T17:31:06.212Z,16.50
2023-02-17T17:41:34.448Z,17.30
2023-02-17T17:51:58.630Z,13.70
2023-02-17T18:02:22.841Z,13.90
2023-02-17T18:12:48.240Z,10.30
2023-02-17T18:23:12.745Z,11.60
2023-02-17T18:33:38.159Z,11.60
2023-02-17T18:44:05.465Z,10.40
2023-02-17T18:54:29.799Z,14.20
2023-02-17T19:05:02.452Z,14.60
2023-02-17T19:15:26.703Z,15.00
2023-02-17T19:25:51.020Z,10.80
2023-02-17T19:36:17.144Z,9.20
2023-02-17T19:46:41.694Z,13.40
2023-02-17T19:57:06.082Z,12.50
2023-02-17T20:07:31.148Z,10.40
2023-02-17T20:17:55.302Z,12.40
2023-02-17T20:28:20.487Z,10.60
2023-02-17T20:38:45.653Z,12.50
2023-02-17T20:49:10.634Z,13.80
2023-02-17T20:59:35.488Z,11.20
2023-02-17T21:10:00.321Z,9.90
2023-02-17T21:20:25.214Z,11.50
2023-02-17T21:30:50.232Z,10.00
2023-02-17T21:41:17.937Z,10.80
2023-02-17T21:51:42.235Z,8.60
2023-02-17T22:02:06.498Z,9.00
2023-02-17T22:12:30.751Z,8.30
2023-02-17T22:22:55.315Z,8.10
2023-02-17T22:33:19.570Z,7.80
2023-02-17T22:43:44.807Z,7.60
2023-02-17T22:54:09.610Z,8.20
2023-02-17T23:04:33.982Z,7.90
2023-02-17T23:14:58.204Z,8.00
2023-02-17T23:25:22.426Z,6.10
2023-02-17T23:35:48.166Z,9.00
2023-02-17T23:46:12.584Z,6.50
2023-02-17T23:56:37.655Z,6.40
